createdAt,value
2022-09-13T09:29:38.357Z,100501.03
2022-09-13T09:32:42.795Z,100498.13
2022-09-13T09:35:32.429Z,100496.44
2022-09-13T09:38:31.238Z,100503.84
2022-09-13T09:41:26.757Z,100501.81
2022-09-13T09:44:19.741Z,100495.00
2022-09-13T09:47:05.049Z,100498.41
2022-09-13T09:50:10.299Z,100496.56
2022-09-13T09:52:56.749Z,100505.97
2022-09-13T09:56:02.729Z,100492.41
2022-09-13T09:58:48.170Z,100501.78
2022-09-13T10:01:37.603Z,100500.22
2022-09-13T10:04:22.875Z,100489.53
2022-09-13T10:07:20.616Z,100495.56
2022-09-13T10:10:08.486Z,100497.59
2022-09-13T10:12:56.133Z,100492.44
2022-09-13T10:15:52.806Z,100497.34
2022-09-13T10:18:46.144Z,100501.63
2022-09-13T10:21:31.438Z,100502.69
2022-09-13T10:24:18.074Z,100501.63
2022-09-13T10:27:05.245Z,100502.03
2022-09-13T10:29:52.297Z,100505.19
2022-09-13T10:32:37.219Z,100506.56
2022-09-13T10:35:23.383Z,100499.34
2022-09-13T10:38:20.476Z,100499.38
2022-09-13T10:41:07.724Z,100492.50
2022-09-13T10:43:57.279Z,100488.16
2022-09-13T10:46:42.539Z,100481.19
2022-09-13T10:49:46.715Z,100479.06
2022-09-13T10:52:36.135Z,100473.84
2022-09-13T10:55:26.192Z,100469.41
2022-09-13T10:58:13.667Z,100477.06
2022-09-13T11:01:16.477Z,100477.97
2022-09-13T11:04:19.872Z,100479.69
2022-09-13T11:07:14.205Z,100477.47
2022-09-13T11:10:14.640Z,100484.75
2022-09-13T11:13:06.115Z,100484.16
2022-09-13T11:15:58.427Z,100470.06
2022-09-13T11:18:49.753Z,100477.09
2022-09-13T11:21:58.001Z,100463.69
2022-09-13T11:24:50.302Z,100468.72
2022-09-13T11:27:43.953Z,100466.44
2022-09-13T11:30:33.717Z,100458.84
2022-09-13T11:33:27.996Z,100460.22
2022-09-13T11:36:27.109Z,100467.88
2022-09-13T11:39:13.480Z,100446.06
2022-09-13T11:42:17.629Z,100446.25
2022-09-13T11:45:19.358Z,100453.19
2022-09-13T11:48:17.135Z,100448.31
2022-09-13T11:51:21.109Z,100433.31
2022-09-13T11:54:25.442Z,100417.59
2022-09-13T11:57:14.357Z,100425.44
2022-09-13T12:00:02.809Z,100423.97
2022-09-13T12:03:06.443Z,100405.97
2022-09-13T12:05:54.652Z,100420.00
2022-09-13T12:08:45.286Z,100420.31
2022-09-13T12:11:38.802Z,100417.09
2022-09-13T12:14:26.094Z,100416.34
2022-09-13T12:17:34.104Z,100418.88
2022-09-13T12:20:29.210Z,100408.44
2022-09-13T12:23:16.813Z,100403.41
2022-09-13T12:26:04.815Z,100410.22
2022-09-13T12:28:53.433Z,100408.22
2022-09-13T12:31:38.422Z,100394.28
2022-09-13T12:34:27.096Z,100397.34
2022-09-13T12:37:20.717Z,100388.44
2022-09-13T12:40:14.330Z,100390.44
2022-09-13T12:43:02.807Z,100383.91
2022-09-13T12:45:48.271Z,100376.41
2022-09-13T12:48:49.332Z,100392.63
2022-09-13T12:51:50.318Z,100381.19
2022-09-13T12:54:41.521Z,100386.13
2022-09-13T12:57:45.435Z,100394.09
2022-09-13T13:00:33.563Z,100389.72
2022-09-13T13:03:19.532Z,100383.13
2022-09-13T13:06:17.547Z,100381.13
2022-09-13T13:09:05.672Z,100390.03
2022-09-13T13:11:52.035Z,100397.28
2022-09-13T13:14:37.335Z,100401.28
2022-09-13T13:17:37.813Z,100393.91
2022-09-13T13:20:44.988Z,100396.44
2022-09-13T13:23:31.700Z,100405.00
2022-09-13T13:26:35.413Z,100398.16
2022-09-13T13:29:23.194Z,100395.06
2022-09-13T13:32:12.137Z,100390.53
2022-09-13T13:35:17.381Z,100385.44
2022-09-13T13:38:28.804Z,100379.59
2022-09-13T13:41:32.514Z,100382.06
2022-09-13T13:44:17.886Z,100384.88
2022-09-13T13:47:03.545Z,100379.75
2022-09-13T13:50:13.241Z,100387.59
2022-09-13T13:53:06.098Z,100371.72
2022-09-13T13:56:06.829Z,100370.88
2022-09-13T13:58:55.509Z,100372.16
2022-09-13T14:01:44.522Z,100364.69
2022-09-13T14:04:38.938Z,100362.09
2022-09-13T14:07:29.224Z,100360.34
2022-09-13T14:10:20.296Z,100361.22
2022-09-13T14:13:24.688Z,100371.69
2022-09-13T14:16:17.699Z,100377.91
2022-09-13T14:19:02.971Z,100388.09
2022-09-13T14:22:04.717Z,100374.41
2022-09-13T14:24:50.753Z,100378.16
2022-09-13T14:27:37.522Z,100388.56
2022-09-13T14:30:26.956Z,100382.53
2022-09-13T14:33:24.240Z,100375.81
2022-09-13T14:36:17.837Z,100371.44
2022-09-13T14:39:03.268Z,100370.00
2022-09-13T14:41:49.129Z,100365.91
2022-09-13T14:44:34.178Z,100360.81
2022-09-13T14:47:24.384Z,100359.22
2022-09-13T14:50:14.906Z,100357.50
2022-09-13T14:53:01.800Z,100347.03
2022-09-13T14:55:51.130Z,100349.41
2022-09-13T14:58:43.899Z,100344.13
2022-09-13T15:01:31.204Z,100354.75
2022-09-13T15:04:17.286Z,100360.81
2022-09-13T15:07:17.652Z,100357.28
2022-09-13T15:10:11.948Z,100355.19
2022-09-13T15:13:06.371Z,100360.69
2022-09-13T15:15:51.970Z,100367.16
2022-09-13T15:18:37.394Z,100361.50
2022-09-13T15:21:22.369Z,100355.34
2022-09-13T15:24:18.545Z,100357.41
2022-09-13T15:27:07.856Z,100359.97
2022-09-13T15:29:54.557Z,100350.84
2022-09-13T15:32:41.272Z,100359.72
2022-09-13T15:35:31.334Z,100352.56
2022-09-13T15:38:18.477Z,100359.63
2022-09-13T15:41:13.910Z,100367.66
2022-09-13T15:44:04.184Z,100368.38
2022-09-13T15:46:52.288Z,100363.97
2022-09-13T15:49:39.962Z,100365.13
2022-09-13T15:52:25.254Z,100362.59
2022-09-13T15:55:11.604Z,100360.22
2022-09-13T15:57:57.119Z,100358.41
2022-09-13T16:00:42.081Z,100359.28
2022-09-13T16:03:27.636Z,100360.84
2022-09-13T16:06:12.980Z,100364.66
2022-09-13T16:09:00.087Z,100369.88
2022-09-13T16:11:46.358Z,100360.47
2022-09-13T16:14:31.315Z,100375.84
2022-09-13T16:17:20.292Z,100370.72
2022-09-13T16:20:07.791Z,100371.47
2022-09-13T16:22:53.582Z,100374.94
2022-09-13T16:25:38.711Z,100380.16
2022-09-13T16:28:24.071Z,100378.03
2022-09-13T16:31:09.349Z,100384.66
2022-09-13T16:33:54.659Z,100390.09
2022-09-13T16:36:39.600Z,100385.19
2022-09-13T16:39:25.075Z,100382.69
2022-09-13T16:42:10.963Z,100381.25
2022-09-13T16:44:56.351Z,100386.72
2022-09-13T16:47:41.532Z,100385.78
2022-09-13T16:50:26.729Z,100380.81
2022-09-13T16:53:12.347Z,100389.16
2022-09-13T16:56:08.307Z,100389.22
2022-09-13T16:58:54.102Z,100389.84
2022-09-13T17:01:39.087Z,100390.16
2022-09-13T17:04:24.472Z,100400.13
2022-09-13T17:07:09.783Z,100405.59
2022-09-13T17:09:54.756Z,100401.97
2022-09-13T17:12:39.982Z,100406.72
2022-09-13T17:15:25.292Z,100409.53
2022-09-13T17:18:10.597Z,100414.97
2022-09-13T17:20:55.905Z,100411.22
2022-09-13T17:23:41.072Z,100419.03
2022-09-13T17:26:26.306Z,100419.81
2022-09-13T17:29:12.176Z,100424.09
2022-09-13T17:32:01.275Z,100427.84
2022-09-13T17:34:46.715Z,100431.13
2022-09-13T17:37:32.151Z,100432.53
2022-09-13T17:40:17.772Z,100427.97
2022-09-13T17:43:03.902Z,100425.84
2022-09-13T17:45:49.242Z,100436.66
2022-09-13T17:48:34.576Z,100436.25
2022-09-13T17:51:20.948Z,100439.56
2022-09-13T17:54:07.153Z,100450.03
2022-09-13T17:56:52.414Z,100448.88
2022-09-13T17:59:37.465Z,100447.91
2022-09-13T18:02:22.876Z,100449.72
2022-09-13T18:05:12.946Z,100452.66
2022-09-13T18:07:58.912Z,100452.69
2022-09-13T18:11:04.107Z,100458.16
2022-09-13T18:13:49.275Z,100460.47
2022-09-13T18:16:34.671Z,100463.47
2022-09-13T18:19:33.894Z,100460.56
2022-09-13T18:22:25.131Z,100462.03
2022-09-13T18:25:10.574Z,100448.34
2022-09-13T18:27:55.924Z,100462.19
2022-09-13T18:30:50.672Z,100463.28
2022-09-13T18:33:36.390Z,100456.78
2022-09-13T18:36:22.613Z,100459.53
2022-09-13T18:39:08.493Z,100464.22
2022-09-13T18:41:53.875Z,100465.31
2022-09-13T18:44:39.036Z,100463.34
2022-09-13T18:47:24.203Z,100461.06
2022-09-13T18:50:11.642Z,100472.38
2022-09-13T18:52:57.140Z,100470.16
2022-09-13T18:55:42.156Z,100472.88
2022-09-13T18:58:29.585Z,100480.53
2022-09-13T19:01:16.578Z,100478.25
2022-09-13T19:04:11.708Z,100480.53
2022-09-13T19:06:56.820Z,100479.00
2022-09-13T19:09:42.346Z,100481.94
2022-09-13T19:12:27.709Z,100482.91
2022-09-13T19:15:13.804Z,100486.31
2022-09-13T19:17:59.075Z,100482.44
2022-09-13T19:20:44.446Z,100487.44
2022-09-13T19:23:48.922Z,100487.97
2022-09-13T19:26:36.270Z,100480.69
2022-09-13T19:29:22.704Z,100487.75
2022-09-13T19:32:07.904Z,100470.69
2022-09-13T19:34:53.211Z,100479.78
2022-09-13T19:37:38.191Z,100485.06
2022-09-13T19:40:23.495Z,100481.56
2022-09-13T19:43:09.134Z,100475.41
2022-09-13T19:45:59.278Z,100481.63
2022-09-13T19:48:45.308Z,100474.13
2022-09-13T19:51:32.032Z,100474.84
2022-09-13T19:54:18.733Z,100471.88
2022-09-13T19:57:04.136Z,100461.03
2022-09-13T19:59:49.518Z,100469.38
2022-09-13T20:02:34.771Z,100464.50
2022-09-13T20:05:21.310Z,100468.00
2022-09-13T20:08:09.171Z,100470.19
2022-09-13T20:10:55.005Z,100465.56
2022-09-13T20:13:40.536Z,100465.34
2022-09-13T20:16:27.340Z,100471.25
2022-09-13T20:19:39.710Z,100461.28
2022-09-13T20:22:24.407Z,100468.66
2022-09-13T20:25:10.301Z,100465.19
2022-09-13T20:27:55.613Z,100468.22
2022-09-13T20:30:42.124Z,100467.69
2022-09-13T20:33:27.327Z,100467.59
2022-09-13T20:36:14.975Z,100467.41
2022-09-13T20:39:03.475Z,100465.25
2022-09-13T20:41:49.842Z,100468.84
2022-09-13T20:44:35.166Z,100460.63
2022-09-13T20:47:20.350Z,100463.47
2022-09-13T20:50:06.041Z,100461.78
2022-09-13T20:52:51.106Z,100461.16
2022-09-13T20:55:38.003Z,100465.72
2022-09-13T20:58:24.776Z,100459.97
2022-09-13T21:01:12.314Z,100459.34
2022-09-13T21:03:58.104Z,100461.22
2022-09-13T21:07:01.903Z,100452.47
2022-09-13T21:09:47.421Z,100464.22
2022-09-13T21:12:32.869Z,100443.00
2022-09-13T21:15:18.823Z,100451.03
2022-09-13T21:18:04.040Z,100455.16
2022-09-13T21:20:56.641Z,100449.38
2022-09-13T21:23:42.279Z,100449.97
2022-09-13T21:26:28.450Z,100452.91
2022-09-13T21:29:13.783Z,100463.34
2022-09-13T21:31:59.072Z,100453.94
2022-09-13T21:34:44.148Z,100454.91
2022-09-13T21:37:29.573Z,100458.75
2022-09-13T21:40:14.944Z,100452.75
2022-09-13T21:43:00.336Z,100451.06
2022-09-13T21:45:46.023Z,100457.38
2022-09-13T21:48:32.823Z,100453.59
2022-09-13T21:51:20.001Z,100452.38
2022-09-13T21:54:07.044Z,100452.97
2022-09-13T21:56:53.754Z,100455.69
2022-09-13T21:59:39.128Z,100453.50
2022-09-13T22:02:24.349Z,100453.13
2022-09-13T22:05:09.690Z,100442.16
2022-09-13T22:07:54.907Z,100441.50
2022-09-13T22:10:40.040Z,100447.50
2022-09-13T22:13:25.499Z,100443.09
2022-09-13T22:16:13.699Z,100444.81
2022-09-13T22:19:00.005Z,100449.59
2022-09-13T22:21:46.907Z,100448.13
2022-09-13T22:24:32.114Z,100452.63
2022-09-13T22:27:17.421Z,100461.56
2022-09-13T22:30:03.447Z,100456.03
2022-09-13T22:32:48.835Z,100453.41
2022-09-13T22:35:34.047Z,100456.53
2022-09-13T22:38:19.493Z,100448.91
2022-09-13T22:41:06.577Z,100445.44
2022-09-13T22:43:52.029Z,100445.34
2022-09-13T22:46:41.396Z,100450.63
2022-09-13T22:49:26.484Z,100439.75
2022-09-13T22:52:11.829Z,100440.25
2022-09-13T22:54:57.248Z,100442.31
2022-09-13T22:57:42.438Z,100441.75
2022-09-13T23:00:28.784Z,100437.91
2022-09-13T23:03:14.252Z,100440.44
2022-09-13T23:05:59.652Z,100439.50
2022-09-13T23:08:45.395Z,100442.22
2022-09-13T23:11:32.127Z,100444.97
2022-09-13T23:14:19.727Z,100449.63
2022-09-13T23:17:05.179Z,100440.94
2022-09-13T23:19:50.579Z,100439.97
2022-09-13T23:22:35.531Z,100447.00
2022-09-13T23:25:20.781Z,100448.50
2022-09-13T23:28:06.114Z,100451.91
2022-09-13T23:30:51.438Z,100445.88
2022-09-13T23:33:40.322Z,100454.72
2022-09-13T23:36:30.004Z,100439.69
2022-09-13T23:39:16.666Z,100436.41
2022-09-13T23:42:02.455Z,100443.25
2022-09-13T23:44:47.438Z,100442.59
2022-09-13T23:47:32.688Z,100445.13
2022-09-13T23:50:18.123Z,100444.00
2022-09-13T23:53:03.509Z,100440.81
2022-09-13T23:55:48.878Z,100438.56
2022-09-13T23:58:34.316Z,100439.22
